Time;durP1;ratioP1;P1;durP2;ratioP2;P2;SDS_P1;SDS_P2;PMS_P1;PMS_P2;Temp;Humidity;BMP_temperature;BMP_pressure;BME280_temperature;BME280_humidity;BME280_pressure;Samples;Min_cycle;Max_cycle;Signal;HPM_P1;HPM_P2
2022/06/22 00:07:50;;;;;;;26.00;13.82;;;12.70;99.90;;;;;;4817749;26;20065;-70
2022/06/22 00:23:43;;;;;;;15.43;3.25;;;11.80;99.90;;;;;;4322474;26;20104;-70
2022/06/22 00:26:26;;;;;;;6.85;3.58;;;11.60;99.90;;;;;;4968837;28;20042;-70
2022/06/22 00:29:41;;;;;;;6.47;3.50;;;11.40;99.90;;;;;;4982746;28;20045;-69
2022/06/22 00:37:24;;;;;;;9.13;5.10;;;11.20;99.90;;;;;;4874114;29;20052;-70
2022/06/22 01:12:54;;;;;;;13.50;6.32;;;10.50;99.90;;;;;;4739932;26;20066;-69
2022/06/22 01:16:03;;;;;;;269.17;13.70;;;10.50;99.90;;;;;;4974601;28;20040;-70
2022/06/22 01:18:40;;;;;;;21.38;5.30;;;10.50;99.90;;;;;;4965831;28;20047;-70
2022/06/22 01:21:26;;;;;;;21.25;5.10;;;10.50;99.90;;;;;;4970204;28;20046;-69
2022/06/22 01:24:07;;;;;;;134.27;8.13;;;10.40;99.90;;;;;;4963634;28;20490;-69
2022/06/22 01:26:57;;;;;;;119.63;8.02;;;10.30;99.90;;;;;;4964909;28;20034;-70
2022/06/22 01:29:25;;;;;;;22.70;5.97;;;10.30;99.90;;;;;;4964007;28;20043;-70
2022/06/22 01:32:01;;;;;;;15.02;5.63;;;10.30;99.90;;;;;;4958842;28;20342;-70
2022/06/22 01:34:45;;;;;;;78.68;8.00;;;10.20;99.90;;;;;;4956846;28;20401;-70
2022/06/22 01:37:21;;;;;;;73.82;7.68;;;10.20;99.90;;;;;;4960227;28;20398;-71
2022/06/22 01:39:47;;;;;;;16.38;6.15;;;10.00;99.90;;;;;;4935905;28;20703;-71
2022/06/22 01:42:38;;;;;;;26.92;6.38;;;10.00;99.90;;;;;;4967557;28;20089;-72
2022/06/22 01:45:11;;;;;;;22.90;5.00;;;10.00;99.90;;;;;;4943109;28;20031;-71
2022/06/22 01:47:56;;;;;;;8.65;5.20;;;9.90;99.90;;;;;;4956382;28;20718;-72
2022/06/22 01:50:31;;;;;;;8.82;4.97;;;9.90;99.90;;;;;;4963990;28;20034;-72
2022/06/22 01:53:14;;;;;;;13.98;5.05;;;9.80;99.90;;;;;;4941490;28;20039;-72
2022/06/22 01:55:45;;;;;;;19.10;6.38;;;9.70;99.90;;;;;;4959188;28;21049;-72
2022/06/22 01:59:22;;;;;;;44.58;7.15;;;9.60;99.90;;;;;;4966621;28;20444;-72
2022/06/22 02:01:59;;;;;;;60.35;7.25;;;9.60;99.90;;;;;;4919277;28;21875;-72
2022/06/22 02:04:35;;;;;;;65.82;7.65;;;9.60;99.90;;;;;;4944422;28;20042;-73
2022/06/22 02:08:16;;;;;;;53.42;7.82;;;9.60;99.90;;;;;;4965271;28;20129;-73
2022/06/22 02:11:25;;;;;;;226.13;11.25;;;9.60;99.90;;;;;;4960729;28;20620;-72
2022/06/22 02:13:59;;;;;;;21.30;7.28;;;9.50;99.90;;;;;;4943603;28;20470;-72
2022/06/22 02:16:26;;;;;;;194.63;12.93;;;9.40;99.90;;;;;;4939013;28;20047;-72
2022/06/22 02:23:09;;;;;;;69.65;9.10;;;9.50;99.90;;;;;;4962636;28;20184;-73
2022/06/22 02:26:47;;;;;;;95.45;10.65;;;9.40;99.90;;;;;;4959342;28;20039;-73
2022/06/22 02:29:48;;;;;;;65.45;9.48;;;9.40;99.90;;;;;;4978725;28;20101;-72
2022/06/22 02:37:09;;;;;;;47.88;7.60;;;9.20;99.90;;;;;;4973290;28;20109;-72
2022/06/22 02:46:40;;;;;;;279.75;15.13;;;9.00;99.90;;;;;;4949339;28;20057;-73
2022/06/22 02:49:37;;;;;;;134.07;11.50;;;8.90;99.90;;;;;;4953845;28;20456;-73
2022/06/22 02:52:11;;;;;;;168.77;12.05;;;8.80;99.90;;;;;;4967235;28;20042;-73
2022/06/22 02:54:50;;;;;;;36.17;8.73;;;8.80;99.90;;;;;;4966023;28;20042;-72
2022/06/22 02:58:08;;;;;;;28.50;9.65;;;8.80;99.90;;;;;;4980548;28;20281;-71
2022/06/22 03:01:21;;;;;;;36.25;9.45;;;8.80;99.90;;;;;;4968109;28;20371;-72
2022/06/22 03:04:15;;;;;;;31.75;10.18;;;8.80;99.90;;;;;;4924664;28;20051;-72
2022/06/22 03:06:49;;;;;;;26.23;10.65;;;8.80;99.90;;;;;;4956577;28;20390;-71
2022/06/22 03:09:15;;;;;;;25.95;10.88;;;8.80;99.90;;;;;;4962893;28;20034;-71
2022/06/22 03:11:45;;;;;;;19.27;10.60;;;8.80;99.90;;;;;;4960676;28;20039;-71
2022/06/22 03:14:27;;;;;;;48.45;11.63;;;8.80;99.90;;;;;;4957391;28;20042;-71
2022/06/22 03:17:05;;;;;;;26.02;12.02;;;8.80;99.90;;;;;;4983204;28;20081;-71
2022/06/22 03:19:51;;;;;;;36.13;12.98;;;8.80;99.90;;;;;;4960720;28;20077;-71
2022/06/22 03:22:23;;;;;;;22.52;12.48;;;8.80;99.90;;;;;;4982844;28;20039;-70
2022/06/22 03:24:51;;;;;;;21.75;11.55;;;8.80;99.90;;;;;;4963207;28;20121;-71
2022/06/22 03:27:35;;;;;;;12.90;7.68;;;8.90;99.90;;;;;;4946404;28;20046;-71
2022/06/22 03:30:07;;;;;;;21.70;12.30;;;8.80;99.90;;;;;;4946451;28;20042;-71
2022/06/22 03:32:39;;;;;;;20.70;11.80;;;8.80;99.90;;;;;;4955933;28;20425;-71
2022/06/22 03:35:11;;;;;;;26.70;13.15;;;8.80;99.90;;;;;;4962217;28;20086;-71
2022/06/22 03:37:36;;;;;;;;;;;8.80;99.90;;;;;;4977536;28;20047;-71
2022/06/22 03:40:10;;;;;;;25.73;10.85;;;8.90;99.90;;;;;;4958634;28;20287;-72
2022/06/22 03:42:42;;;;;;;187.88;17.00;;;8.90;99.90;;;;;;4956077;28;20523;-72
2022/06/22 03:45:17;;;;;;;95.50;14.52;;;8.80;99.90;;;;;;4944009;28;20073;-72
2022/06/22 03:48:10;;;;;;;193.13;17.13;;;8.80;99.90;;;;;;4968346;28;20482;-74
2022/06/22 03:50:53;;;;;;;39.17;14.00;;;8.80;99.90;;;;;;4954765;28;20046;-73
2022/06/22 03:53:31;;;;;;;129.48;17.33;;;8.80;99.90;;;;;;4963503;28;20054;-73
2022/06/22 03:56:00;;;;;;;45.00;14.23;;;8.90;99.90;;;;;;4944174;28;20509;-71
2022/06/22 03:58:25;;;;;;;46.03;14.68;;;8.80;99.90;;;;;;4957930;28;20061;-71
2022/06/22 04:00:52;;;;;;;38.60;16.05;;;8.80;99.90;;;;;;4955126;28;20046;-71
2022/06/22 04:03:19;;;;;;;39.13;15.50;;;8.90;99.90;;;;;;4959984;28;20081;-72
2022/06/22 04:05:49;;;;;;;61.47;17.30;;;9.00;99.90;;;;;;4959717;28;20446;-70
2022/06/22 04:08:33;;;;;;;37.08;17.33;;;9.20;99.90;;;;;;4959975;28;20098;-71
2022/06/22 04:11:19;;;;;;;51.38;18.13;;;9.20;99.90;;;;;;4943512;28;20030;-70
2022/06/22 04:13:47;;;;;;;41.95;19.45;;;9.30;99.90;;;;;;4985534;28;20121;-71
2022/06/22 04:16:18;;;;;;;39.67;18.20;;;9.50;99.90;;;;;;4960884;28;20042;-71
2022/06/22 04:19:03;;;;;;;41.10;18.48;;;9.60;99.90;;;;;;4955543;28;20039;-70
2022/06/22 04:21:36;;;;;;;40.78;18.25;;;9.70;99.90;;;;;;4962977;28;20038;-71
2022/06/22 04:24:04;;;;;;;39.28;17.70;;;9.80;99.90;;;;;;4959713;28;20046;-71
2022/06/22 04:26:35;;;;;;;37.38;17.50;;;9.80;99.90;;;;;;4958021;28;20074;-68
2022/06/22 04:29:09;;;;;;;39.50;18.42;;;9.90;99.90;;;;;;4959031;28;20047;-71
2022/06/22 04:31:42;;;;;;;43.05;20.33;;;10.00;99.90;;;;;;4958164;28;20129;-72
2022/06/22 04:34:13;;;;;;;;;;;10.10;99.90;;;;;;4957188;28;20047;-70
2022/06/22 04:36:47;;;;;;;45.28;19.05;;;10.20;99.90;;;;;;4956921;28;19977;-71
2022/06/22 04:39:23;;;;;;;41.17;19.75;;;10.30;99.90;;;;;;4966485;28;20461;-73
2022/06/22 04:41:49;;;;;;;41.92;19.15;;;10.40;99.90;;;;;;4952816;28;20092;-72
2022/06/22 04:44:20;;;;;;;44.70;20.88;;;10.50;99.90;;;;;;4961459;28;20057;-73
2022/06/22 04:46:49;;;;;;;45.20;20.70;;;10.70;99.90;;;;;;4959531;28;20385;-73
2022/06/22 04:49:15;;;;;;;42.85;20.88;;;10.70;99.90;;;;;;4956681;28;20794;-73
2022/06/22 04:51:53;;;;;;;50.90;22.52;;;10.80;99.90;;;;;;4939486;28;20046;-74
2022/06/22 04:54:29;;;;;;;47.70;20.30;;;11.00;99.90;;;;;;4943421;28;20030;-74
2022/06/22 04:56:56;;;;;;;51.58;21.05;;;11.10;99.90;;;;;;4981785;28;20101;-74
2022/06/22 04:59:23;;;;;;;49.55;21.23;;;11.20;99.90;;;;;;4980989;28;20397;-74
2022/06/22 05:02:09;;;;;;;43.30;20.60;;;11.30;99.90;;;;;;4959101;28;20077;-73
2022/06/22 05:04:39;;;;;;;50.22;22.13;;;11.50;99.90;;;;;;4984666;28;20054;-73
2022/06/22 05:07:26;;;;;;;51.53;22.17;;;11.50;99.90;;;;;;4982605;28;20046;-73
2022/06/22 05:10:14;;;;;;;45.45;20.13;;;11.70;99.90;;;;;;4955628;28;20042;-72
2022/06/22 05:12:49;;;;;;;41.78;19.80;;;11.90;99.90;;;;;;4960867;28;20030;-71
2022/06/22 05:15:25;;;;;;;46.05;20.90;;;12.00;99.90;;;;;;4943481;28;20035;-71
2022/06/22 05:17:55;;;;;;;42.97;20.50;;;12.10;99.90;;;;;;4959135;28;20053;-71
2022/06/22 05:21:16;;;;;;;38.15;19.95;;;12.20;99.90;;;;;;4957200;28;21346;-71
2022/06/22 05:24:29;;;;;;;44.10;21.67;;;12.20;99.90;;;;;;4949206;28;20425;-71
2022/06/22 05:26:57;;;;;;;42.45;21.45;;;12.50;99.90;;;;;;4948945;28;20053;-71
2022/06/22 05:29:38;;;;;;;44.72;21.42;;;12.60;99.90;;;;;;4961779;28;20398;-71
2022/06/22 05:40:43;;;;;;;41.47;21.10;;;13.20;99.90;;;;;;4931127;28;20072;-70
2022/06/22 05:47:20;;;;;;;42.45;21.25;;;13.60;99.90;;;;;;4968679;28;20371;-71
2022/06/22 05:49:58;;;;;;;45.00;21.42;;;13.80;99.90;;;;;;4955308;28;20059;-70
2022/06/22 05:52:51;;;;;;;40.47;20.65;;;14.00;99.90;;;;;;4953135;28;20043;-70
2022/06/22 05:56:36;;;;;;;45.10;22.10;;;14.20;99.90;;;;;;4969087;28;20482;-70
2022/06/22 05:59:22;;;;;;;40.42;21.23;;;14.40;99.90;;;;;;4953310;28;20043;-69
2022/06/22 06:01:56;;;;;;;40.58;21.50;;;14.60;99.90;;;;;;4944508;28;20059;-70
2022/06/22 06:04:40;;;;;;;37.65;20.05;;;14.80;99.90;;;;;;4945464;28;20476;-69
2022/06/22 06:07:18;;;;;;;45.83;21.52;;;15.00;99.90;;;;;;4942897;28;20035;-70
2022/06/22 06:09:44;;;;;;;43.35;21.33;;;15.20;99.90;;;;;;4967590;28;20383;-70
2022/06/22 06:12:18;;;;;;;40.78;20.13;;;15.40;99.90;;;;;;4947968;28;20085;-69
2022/06/22 06:14:48;;;;;;;41.78;19.75;;;15.50;99.90;;;;;;4956999;28;20034;-70
2022/06/22 06:17:36;;;;;;;40.72;19.45;;;15.60;99.90;;;;;;4957101;28;20123;-70
2022/06/22 06:20:06;;;;;;;39.13;19.52;;;15.70;99.90;;;;;;4957339;28;20054;-71
2022/06/22 06:22:36;;;;;;;42.47;19.52;;;15.80;99.90;;;;;;4970267;28;20050;-71
2022/06/22 06:28:04;;;;;;;39.33;19.92;;;16.10;99.90;;;;;;4955666;28;20117;-70
2022/06/22 06:30:38;;;;;;;37.47;19.27;;;16.30;99.90;;;;;;4970701;28;20489;-71
2022/06/22 06:33:37;;;;;;;34.75;18.52;;;16.40;99.90;;;;;;4957042;28;20038;-70
2022/06/22 06:36:20;;;;;;;34.65;17.15;;;16.60;99.90;;;;;;4966148;28;20043;-73
2022/06/22 06:38:56;;;;;;;33.85;16.27;;;16.60;99.90;;;;;;4958223;28;20051;-70
2022/06/22 06:41:40;;;;;;;29.95;15.52;;;16.70;99.90;;;;;;5009767;28;20069;-71
2022/06/22 06:44:16;;;;;;;31.85;16.17;;;16.80;99.90;;;;;;4979279;28;20170;-74
2022/06/22 06:46:52;;;;;;;34.28;15.50;;;16.90;99.90;;;;;;4939939;28;20070;-71
2022/06/22 06:49:41;;;;;;;33.00;14.77;;;17.00;99.90;;;;;;4960577;28;20043;-72
2022/06/22 06:52:16;;;;;;;27.05;14.48;;;17.10;99.90;;;;;;4958810;28;20478;-71
2022/06/22 06:55:04;;;;;;;31.00;14.90;;;17.20;99.90;;;;;;4957332;28;20034;-72
2022/06/22 06:57:38;;;;;;;24.67;14.65;;;17.20;99.90;;;;;;4925378;28;20097;-71
2022/06/22 07:00:09;;;;;;;29.60;15.13;;;17.30;99.90;;;;;;4948123;28;20351;-72
2022/06/22 07:02:38;;;;;;;27.55;14.13;;;17.30;99.90;;;;;;4939461;28;20053;-71
2022/06/22 07:05:10;;;;;;;23.67;12.38;;;17.40;99.90;;;;;;4987334;28;20037;-70
2022/06/22 07:08:15;;;;;;;21.17;12.02;;;17.60;99.90;;;;;;4953427;28;20038;-72
2022/06/22 07:10:56;;;;;;;24.67;12.73;;;17.70;99.90;;;;;;4942076;28;20043;-71
2022/06/22 07:13:56;;;;;;;24.58;13.40;;;17.70;99.90;;;;;;4985315;28;20047;-72
2022/06/22 07:16:25;;;;;;;27.30;12.30;;;17.80;99.90;;;;;;4939375;28;20046;-71
2022/06/22 07:19:00;;;;;;;25.95;13.27;;;17.80;99.90;;;;;;4940728;28;20189;-72
2022/06/22 07:21:42;;;;;;;25.80;14.05;;;18.00;99.90;;;;;;4956817;28;20529;-71
2022/06/22 07:24:13;;;;;;;26.63;14.25;;;18.10;99.90;;;;;;4957116;28;20493;-72
2022/06/22 07:26:53;;;;;;;29.83;14.73;;;18.10;99.90;;;;;;4956491;28;20053;-70
2022/06/22 07:29:45;;;;;;;27.27;13.98;;;18.10;99.90;;;;;;4950773;28;20305;-74
2022/06/22 07:32:33;;;;;;;24.88;13.63;;;18.20;99.90;;;;;;4940482;28;20437;-73
2022/06/22 07:35:24;;;;;;;24.05;13.68;;;18.30;99.90;;;;;;4956663;28;20043;-74
2022/06/22 07:38:05;;;;;;;24.70;13.50;;;18.40;99.90;;;;;;4953768;28;20390;-75
2022/06/22 07:40:33;;;;;;;23.35;12.88;;;18.50;99.90;;;;;;4956815;28;20544;-72
2022/06/22 07:43:00;;;;;;;26.33;13.82;;;18.50;99.90;;;;;;4956505;28;20090;-69
2022/06/22 07:45:27;;;;;;;26.88;14.55;;;18.50;99.90;;;;;;4956030;28;20049;-71
2022/06/22 07:48:05;;;;;;;25.60;13.88;;;18.60;99.90;;;;;;4949224;28;20049;-71
2022/06/22 07:50:45;;;;;;;20.95;12.38;;;18.60;99.90;;;;;;4956925;28;20039;-70
2022/06/22 07:53:42;;;;;;;20.63;10.77;;;18.80;99.90;;;;;;4957225;28;20035;-73
2022/06/22 07:56:23;;;;;;;20.00;10.93;;;18.80;99.90;;;;;;4949376;28;20070;-72
2022/06/22 07:58:56;;;;;;;18.70;9.05;;;19.00;99.90;;;;;;4953859;28;20269;-77
2022/06/22 08:01:29;;;;;;;22.73;11.38;;;19.10;99.90;;;;;;4941906;28;20401;-75
2022/06/22 08:04:15;;;;;;;21.67;11.30;;;19.10;99.90;;;;;;4938413;29;20525;-74
2022/06/22 08:06:47;;;;;;;17.20;9.77;;;19.10;99.90;;;;;;4936861;29;20549;-72
2022/06/22 08:09:22;;;;;;;16.55;8.63;;;19.10;99.90;;;;;;4936810;29;20407;-75
2022/06/22 08:11:59;;;;;;;17.00;9.52;;;19.20;99.90;;;;;;4936350;28;20544;-71
2022/06/22 08:14:33;;;;;;;17.45;9.25;;;19.30;99.90;;;;;;4969862;28;20045;-74
2022/06/22 08:17:01;;;;;;;16.23;8.80;;;19.40;99.90;;;;;;4947126;29;20121;-73
2022/06/22 08:19:29;;;;;;;6.68;4.60;;;19.60;99.90;;;;;;4943219;28;20039;-75
2022/06/22 08:22:04;;;;;;;7.45;4.82;;;19.70;99.90;;;;;;4955630;28;20038;-73
2022/06/22 08:24:33;;;;;;;10.70;6.40;;;19.80;99.90;;;;;;4939147;28;20643;-73
2022/06/22 08:27:00;;;;;;;14.43;7.22;;;19.70;99.90;;;;;;4951733;28;20065;-75
2022/06/22 08:29:30;;;;;;;11.35;6.85;;;19.70;99.90;;;;;;4954956;28;20058;-71
2022/06/22 08:32:08;;;;;;;12.90;6.85;;;19.80;99.90;;;;;;4955388;28;20073;-74
2022/06/22 08:34:41;;;;;;;12.98;7.38;;;19.80;99.90;;;;;;4948732;28;20110;-74
2022/06/22 08:37:16;;;;;;;15.98;7.68;;;19.80;99.90;;;;;;4968815;28;20049;-73
2022/06/22 08:40:06;;;;;;;14.00;6.68;;;20.00;99.90;;;;;;4953915;28;20061;-76
2022/06/22 08:42:58;;;;;;;11.02;6.18;;;20.00;99.90;;;;;;4951564;28;20054;-72
2022/06/22 08:45:38;;;;;;;12.60;6.38;;;20.10;99.90;;;;;;4937471;28;20098;-72
2022/06/22 08:48:22;;;;;;;12.60;5.88;;;20.10;99.90;;;;;;4953085;28;20437;-73
2022/06/22 08:51:13;;;;;;;12.60;5.35;;;20.30;99.90;;;;;;4948486;28;20130;-74
2022/06/22 08:54:09;;;;;;;11.00;5.15;;;20.40;99.90;;;;;;4954680;28;20066;-67
2022/06/22 08:56:45;;;;;;;10.32;4.90;;;20.50;99.90;;;;;;4953735;28;20050;-72
2022/06/22 08:59:29;;;;;;;7.28;4.50;;;20.60;99.90;;;;;;4952512;28;20043;-74
2022/06/22 09:02:29;;;;;;;10.32;4.57;;;20.70;99.90;;;;;;4935723;28;20038;-70
2022/06/22 09:05:32;;;;;;;7.85;4.30;;;20.80;99.90;;;;;;4951754;28;20537;-73
2022/06/22 09:08:28;;;;;;;7.97;4.25;;;20.90;99.90;;;;;;4951300;28;20490;-74
2022/06/22 09:11:04;;;;;;;8.48;4.28;;;20.80;99.90;;;;;;4954048;28;20064;-74
2022/06/22 09:13:57;;;;;;;8.48;4.20;;;20.80;99.90;;;;;;4953895;28;20062;-72
2022/06/22 09:17:00;;;;;;;7.88;4.15;;;20.70;97.90;;;;;;4952946;28;20042;-72
2022/06/22 09:19:34;;;;;;;4.57;3.67;;;20.70;99.90;;;;;;4955502;28;20406;-70
2022/06/22 09:22:23;;;;;;;8.63;4.03;;;20.80;97.40;;;;;;4949799;28;20126;-72
2022/06/22 09:25:02;;;;;;;8.65;4.20;;;20.70;95.60;;;;;;4938253;28;20846;-72
2022/06/22 09:27:48;;;;;;;8.38;3.88;;;20.70;97.90;;;;;;4937296;28;20047;-74
2022/06/22 09:30:26;;;;;;;12.45;3.40;;;20.80;98.10;;;;;;4954153;28;20362;-72
2022/06/22 09:33:17;;;;;;;5.53;3.17;;;20.90;95.90;;;;;;4952034;28;20446;-73
2022/06/22 09:36:01;;;;;;;7.55;3.25;;;20.90;92.70;;;;;;4954389;28;20053;-70
2022/06/22 09:38:26;;;;;;;6.70;3.45;;;21.00;82.90;;;;;;4953739;28;20077;-69
2022/06/22 09:41:17;;;;;;;6.85;3.40;;;20.90;74.60;;;;;;4953185;28;20070;-74
2022/06/22 09:43:55;;;;;;;5.97;3.45;;;20.90;78.40;;;;;;4966199;28;20114;-72
2022/06/22 09:46:38;;;;;;;5.55;3.58;;;20.80;84.20;;;;;;4936404;28;20617;-71
2022/06/22 09:49:10;;;;;;;11.23;3.20;;;21.00;92.90;;;;;;4934801;28;20422;-70
2022/06/22 09:51:49;;;;;;;6.47;3.13;;;21.10;95.10;;;;;;4953642;28;20039;-70
2022/06/22 09:57:49;;;;;;;5.72;2.75;;;21.20;82.30;;;;;;4970109;28;20058;-72
2022/06/22 10:00:40;;;;;;;6.38;2.92;;;21.30;80.30;;;;;;4947405;28;20636;-71
2022/06/22 10:03:35;;;;;;;4.35;3.05;;;21.40;79.30;;;;;;4953666;28;20049;-73
2022/06/22 10:06:18;;;;;;;4.90;3.10;;;21.50;82.80;;;;;;4954299;28;20077;-72
2022/06/22 10:08:58;;;;;;;5.85;2.38;;;21.40;77.00;;;;;;4953599;28;20524;-72
2022/06/22 10:11:40;;;;;;;4.97;3.08;;;21.50;76.00;;;;;;4935793;28;20050;-72
2022/06/22 10:14:22;;;;;;;7.22;3.28;;;21.50;77.10;;;;;;4953428;28;20051;-73
2022/06/22 10:17:09;;;;;;;5.60;3.53;;;21.60;75.20;;;;;;4953207;28;20035;-75
2022/06/22 10:19:49;;;;;;;10.02;3.53;;;21.70;76.20;;;;;;4937708;28;20513;-74
2022/06/22 10:22:46;;;;;;;7.13;3.58;;;21.80;74.00;;;;;;4938496;28;20482;-71
2022/06/22 10:25:39;;;;;;;7.72;3.13;;;21.80;76.20;;;;;;4953513;28;20434;-73
2022/06/22 10:28:23;;;;;;;4.97;2.65;;;21.90;77.60;;;;;;4937123;28;20047;-72
2022/06/22 10:31:14;;;;;;;3.50;2.67;;;22.00;79.10;;;;;;4953659;28;20070;-70
2022/06/22 10:34:17;;;;;;;6.30;2.80;;;22.10;78.40;;;;;;4953904;28;20045;-70
2022/06/22 10:37:15;;;;;;;7.85;3.15;;;22.20;73.10;;;;;;4933955;29;20046;-71
2022/06/22 10:45:08;;;;;;;9.25;3.80;;;22.30;75.20;;;;;;4950940;29;20049;-73
2022/06/22 10:46:19;;;;;;;8.63;3.72;;;22.50;77.60;;;;;;4934220;29;20175;-72
2022/06/22 10:49:32;;;;;;;8.88;4.53;;;22.50;75.90;;;;;;4937292;29;20047;-72
2022/06/22 10:52:48;;;;;;;6.57;3.83;;;22.50;75.10;;;;;;4936892;29;20047;-72
2022/06/22 10:55:20;;;;;;;7.93;3.50;;;22.50;80.80;;;;;;4931007;28;20049;-72
2022/06/22 10:58:16;;;;;;;15.38;4.22;;;22.50;78.20;;;;;;4954447;28;20375;-73
2022/06/22 11:00:48;;;;;;;8.82;3.88;;;22.60;81.70;;;;;;4955837;28;20053;-72
2022/06/22 11:03:22;;;;;;;6.75;4.13;;;22.70;77.80;;;;;;4966635;28;20445;-71
2022/06/22 11:06:05;;;;;;;8.05;4.63;;;22.70;75.20;;;;;;4955656;28;20114;-73
2022/06/22 11:08:42;;;;;;;;;;;22.60;77.20;;;;;;4956379;28;20599;-71
2022/06/22 11:11:38;;;;;;;7.70;4.68;;;22.70;80.50;;;;;;4970568;28;19925;-71
2022/06/22 11:14:07;;;;;;;7.18;4.70;;;22.80;81.40;;;;;;4956622;28;20038;-70
2022/06/22 11:16:55;;;;;;;10.98;5.10;;;22.90;80.50;;;;;;4956593;28;20403;-73
2022/06/22 11:19:23;;;;;;;11.80;4.75;;;22.90;80.40;;;;;;4956626;28;20096;-69
2022/06/22 11:22:08;;;;;;;9.75;5.53;;;22.90;85.50;;;;;;4956071;28;20050;-72
2022/06/22 11:25:06;;;;;;;10.13;4.75;;;23.00;80.70;;;;;;4939812;28;20397;-68
2022/06/22 11:30:59;;;;;;;9.90;4.72;;;23.10;78.80;;;;;;4965185;28;20057;-70
2022/06/22 11:33:49;;;;;;;8.82;4.60;;;23.10;80.10;;;;;;4940781;28;20393;-72
2022/06/22 11:36:36;;;;;;;12.85;4.70;;;23.00;68.50;;;;;;4938830;28;20296;-70
2022/06/22 11:39:26;;;;;;;13.35;4.20;;;23.00;73.60;;;;;;4956062;28;20042;-71
2022/06/22 11:42:17;;;;;;;9.63;4.32;;;23.00;73.10;;;;;;4972748;28;20089;-71
2022/06/22 11:48:16;;;;;;;5.82;2.90;;;23.20;76.20;;;;;;4952862;29;20525;-70
2022/06/22 11:51:20;;;;;;;7.82;3.92;;;23.20;67.40;;;;;;4940163;28;20047;-70
2022/06/22 11:53:54;;;;;;;6.72;3.47;;;23.30;66.30;;;;;;4935732;29;20046;-72
2022/06/22 11:56:54;;;;;;;11.80;4.07;;;23.30;67.50;;;;;;4965913;28;20189;-70
2022/06/22 11:59:49;;;;;;;10.10;4.15;;;23.40;70.00;;;;;;4972096;28;20149;-70
2022/06/22 12:02:36;;;;;;;9.90;4.13;;;23.40;64.60;;;;;;4937032;29;20058;-69
2022/06/22 12:05:07;;;;;;;12.05;3.88;;;23.40;68.00;;;;;;4936993;29;20409;-70
2022/06/22 12:07:57;;;;;;;10.27;3.92;;;23.50;68.00;;;;;;4936335;29;20043;-70
2022/06/22 12:10:51;;;;;;;8.48;4.00;;;23.50;66.50;;;;;;4936703;29;20490;-71
2022/06/22 12:15:04;;;;;;;10.57;4.07;;;23.50;60.40;;;;;;4946182;28;20488;-69
2022/06/22 12:16:54;;;;;;;12.45;4.43;;;23.50;57.70;;;;;;4955311;28;20047;-68
2022/06/22 12:19:22;;;;;;;11.35;4.30;;;23.40;60.10;;;;;;4954578;28;20121;-69
2022/06/22 12:22:07;;;;;;;11.63;5.60;;;23.30;61.50;;;;;;4955880;28;20531;-70
2022/06/22 12:25:02;;;;;;;17.13;6.38;;;23.40;66.80;;;;;;4953957;28;20115;-71
2022/06/22 12:27:39;;;;;;;11.52;5.55;;;23.50;70.50;;;;;;4971481;28;20054;-71
2022/06/22 12:30:19;;;;;;;14.15;6.65;;;23.50;70.80;;;;;;4955123;28;20054;-72
2022/06/22 12:32:50;;;;;;;12.15;6.00;;;23.50;71.90;;;;;;4932541;28;20031;-69
2022/06/22 12:35:25;;;;;;;17.33;5.40;;;23.50;73.00;;;;;;4942056;28;20062;-70
2022/06/22 12:37:58;;;;;;;13.90;6.32;;;23.50;76.60;;;;;;4954819;28;20038;-68
2022/06/22 12:40:46;;;;;;;12.35;6.20;;;23.60;83.10;;;;;;4955494;28;20054;-71
2022/06/22 12:43:33;;;;;;;14.18;5.75;;;23.70;80.50;;;;;;4954995;28;20038;-69
2022/06/22 12:46:22;;;;;;;16.63;6.65;;;23.80;85.00;;;;;;4955062;28;20098;-71
2022/06/22 12:49:07;;;;;;;10.13;5.65;;;23.80;85.90;;;;;;4955255;28;20049;-71
2022/06/22 12:51:59;;;;;;;13.15;6.43;;;23.90;83.00;;;;;;4953311;28;20035;-72
2022/06/22 12:54:41;;;;;;;12.52;5.30;;;23.90;77.60;;;;;;4955435;28;20512;-71
2022/06/22 12:57:43;;;;;;;12.20;5.75;;;23.90;81.30;;;;;;4954830;28;20055;-72
2022/06/22 13:00:15;;;;;;;13.55;5.45;;;24.00;79.70;;;;;;4921677;28;20062;-70
2022/06/22 13:02:42;;;;;;;9.00;5.57;;;24.00;84.40;;;;;;4968871;28;20054;-72
2022/06/22 13:05:18;;;;;;;9.65;5.32;;;24.00;84.10;;;;;;4940379;28;20053;-69
2022/06/22 13:07:54;;;;;;;13.02;6.07;;;24.00;81.20;;;;;;4984778;28;20041;-70
2022/06/22 13:10:30;;;;;;;12.43;5.13;;;23.90;75.50;;;;;;4957046;28;20047;-70
2022/06/22 13:13:38;;;;;;;11.60;5.45;;;23.80;68.10;;;;;;4935820;28;20074;-71
2022/06/22 13:16:18;;;;;;;12.20;5.13;;;23.90;73.10;;;;;;4996937;28;20048;-70
2022/06/22 13:18:55;;;;;;;12.55;5.18;;;23.90;75.70;;;;;;4974187;28;20045;-70
2022/06/22 13:21:29;;;;;;;11.50;5.25;;;24.00;73.70;;;;;;4938471;28;20522;-70
2022/06/22 13:24:08;;;;;;;9.32;5.03;;;24.00;64.60;;;;;;4934154;29;20065;-69
2022/06/22 13:26:52;;;;;;;13.05;5.07;;;24.00;67.90;;;;;;4959497;28;20071;-71
2022/06/22 13:29:30;;;;;;;10.02;5.20;;;24.00;65.30;;;;;;4962017;28;20034;-71
2022/06/22 13:31:59;;;;;;;10.90;5.43;;;24.00;68.10;;;;;;4954618;28;20050;-71
2022/06/22 13:34:41;;;;;;;11.68;5.78;;;24.00;66.30;;;;;;4948290;28;20047;-70
2022/06/22 13:37:19;;;;;;;12.38;5.85;;;24.00;64.40;;;;;;4954204;28;20047;-70
2022/06/22 13:40:07;;;;;;;12.68;5.03;;;24.00;69.10;;;;;;4954824;28;20078;-71
2022/06/22 13:42:35;;;;;;;13.70;4.90;;;24.00;63.60;;;;;;4954775;28;20046;-69
2022/06/22 13:45:26;;;;;;;11.77;5.57;;;24.00;68.00;;;;;;4955358;28;20070;-71
2022/06/22 13:48:21;;;;;;;13.70;5.60;;;24.00;68.70;;;;;;4938215;28;20043;-71
2022/06/22 13:54:29;;;;;;;11.80;6.07;;;24.20;74.20;;;;;;4933793;28;20050;-69
2022/06/22 13:57:12;;;;;;;12.23;5.07;;;24.20;77.50;;;;;;4940585;28;20043;-71
2022/06/22 13:59:51;;;;;;;15.48;5.47;;;24.30;76.50;;;;;;4969505;28;20046;-71
2022/06/22 14:03:02;;;;;;;8.10;4.85;;;24.30;67.80;;;;;;4981253;28;20468;-72
2022/06/22 14:05:31;;;;;;;9.70;5.07;;;24.30;68.10;;;;;;4954420;28;20082;-73
2022/06/22 14:08:15;;;;;;;11.52;5.35;;;24.30;66.70;;;;;;4937789;28;20058;-74
2022/06/22 14:10:51;;;;;;;19.25;6.70;;;24.30;66.90;;;;;;4936006;28;20063;-72
2022/06/22 14:13:39;;;;;;;13.60;6.45;;;24.30;66.60;;;;;;4954380;28;20611;-71
2022/06/22 14:16:10;;;;;;;14.48;6.68;;;24.30;69.50;;;;;;4947563;28;20046;-70
2022/06/22 14:18:58;;;;;;;13.67;6.90;;;24.30;71.90;;;;;;4954350;28;20407;-68
2022/06/22 14:21:42;;;;;;;18.17;8.00;;;24.30;77.40;;;;;;4954473;28;20517;-71
2022/06/22 14:24:15;;;;;;;22.13;7.22;;;24.30;79.40;;;;;;4957380;28;20053;-70
2022/06/22 14:26:47;;;;;;;19.65;7.47;;;24.30;79.10;;;;;;4939982;28;20047;-70
2022/06/22 14:29:50;;;;;;;15.38;6.70;;;24.30;80.50;;;;;;4957886;28;20038;-70
2022/06/22 14:32:53;;;;;;;15.85;6.82;;;24.40;78.00;;;;;;4955316;28;20054;-71
2022/06/22 14:36:00;;;;;;;21.23;7.85;;;24.40;78.80;;;;;;4958762;28;20039;-70
2022/06/22 14:38:58;;;;;;;15.68;7.38;;;24.40;70.40;;;;;;4958546;28;20105;-72
2022/06/22 14:41:25;;;;;;;12.10;6.55;;;24.20;72.60;;;;;;4941426;28;20074;-74
2022/06/22 14:44:41;;;;;;;17.10;6.95;;;24.10;72.60;;;;;;4957217;28;20445;-72
2022/06/22 14:47:34;;;;;;;16.38;7.10;;;24.20;71.90;;;;;;4954657;28;20047;-71
2022/06/22 14:50:09;;;;;;;14.77;7.63;;;24.20;73.60;;;;;;4955029;28;20047;-72
2022/06/22 14:53:08;;;;;;;19.35;8.02;;;24.20;73.90;;;;;;4956692;28;20039;-72
2022/06/22 14:55:56;;;;;;;20.95;7.35;;;24.20;72.90;;;;;;4955451;28;20161;-74
2022/06/22 14:58:43;;;;;;;16.80;7.20;;;24.20;71.00;;;;;;4953694;28;20054;-72
2022/06/22 15:01:14;;;;;;;15.63;7.90;;;24.20;75.20;;;;;;4981278;28;20081;-71
2022/06/22 15:04:04;;;;;;;16.00;7.72;;;24.30;74.20;;;;;;4949738;28;20047;-73
2022/06/22 15:07:11;;;;;;;17.92;8.02;;;24.30;76.40;;;;;;4967253;28;20065;-72
2022/06/22 15:10:42;;;;;;;16.55;7.80;;;24.40;75.00;;;;;;4971010;28;20397;-73
2022/06/22 15:13:44;;;;;;;19.20;8.23;;;24.50;75.00;;;;;;4916865;29;20063;-72
2022/06/22 15:16:25;;;;;;;18.83;7.07;;;24.50;76.00;;;;;;4934792;28;20031;-71
2022/06/22 15:19:11;;;;;;;16.35;7.25;;;24.60;73.80;;;;;;4957636;28;20533;-70
2022/06/22 15:22:06;;;;;;;15.35;7.40;;;24.50;70.90;;;;;;4955072;28;20107;-72
2022/06/22 15:24:54;;;;;;;16.13;7.20;;;24.50;73.30;;;;;;4951161;28;20058;-73
2022/06/22 15:27:58;;;;;;;17.92;7.60;;;24.40;74.30;;;;;;4954453;28;20275;-70
2022/06/22 15:30:35;;;;;;;12.02;7.35;;;24.60;76.40;;;;;;4944280;28;20426;-72
2022/06/22 15:33:07;;;;;;;19.30;8.05;;;24.70;78.40;;;;;;4956431;28;20042;-73
2022/06/22 15:35:33;;;;;;;;;;;24.70;87.00;;;;;;4955206;28;20050;-74
2022/06/22 15:38:16;;;;;;;19.25;7.93;;;24.80;84.00;;;;;;4956005;28;20381;-72
2022/06/22 15:40:58;;;;;;;14.38;8.25;;;24.90;84.00;;;;;;4925681;28;20097;-72
2022/06/22 15:43:44;;;;;;;19.20;8.13;;;24.90;84.00;;;;;;4956740;28;20478;-74